Kooskia, Idaho
Current Conditions -  °F | °C
As of 3:15 AM on Friday 24 Oct 2014 (Local Time) from KGIC Reporting Station
Overcast Overcast  
Wind Chill: 43°   Ceiling: 3700
Heat Index: 47°   Visibility: 10mi
Dew Point: 45°   Wind: 7mph
Humidity: 93%   Direction: 120°ESE
Pressure: 30.11"   Gusts: NA
Location:  46.14°N, 115.98°W
Report Text: KGIC 241015Z AUTO 12006KT 10SM SCT030 OVC037 08/07 A3011 RMK AO1 T00810071
Loading
Personal Weather Stations






























Interactive Weather Map
Tropical Storm Tracking
New forecast layout! Learn more

10-Day Weather Forecast

Advertisements
Track Severe Weather on mobile